Terminal Aerodrome Forecast
Issued by NWS Amarillo, TX

Home | Current Version | Previous Version | Text Only | Print | Product List | Glossary On
Versions: 1 2 3 4 5 6 7 8 9 10 11 12 13 14 15 16 17 18
607
FTUS44 KAMA 300316 AAA
TAFDHT
TAF AMD
KDHT 300316Z 3003/3024 32008KT P6SM BKN300
     FM300500 29008KT P6SM SCT300
     FM301900 18008KT P6SM SCT300=

USA.gov is the U.S. government's official web portal to all federal, state and local government web resources and services.